createdAt,value
2023-05-18T00:01:00.353Z,1.80
2023-05-18T00:03:48.432Z,2.13
2023-05-18T00:06:36.318Z,1.70
2023-05-18T00:09:24.140Z,1.80
2023-05-18T00:12:11.995Z,2.03
2023-05-18T00:15:00.728Z,1.87
2023-05-18T00:17:48.614Z,1.47
2023-05-18T00:20:36.606Z,1.33
2023-05-18T00:23:24.894Z,1.73
2023-05-18T00:26:12.329Z,1.60
2023-05-18T00:29:00.394Z,1.60
2023-05-18T00:31:49.051Z,2.07
2023-05-18T00:34:36.704Z,1.43
2023-05-18T00:37:23.913Z,1.53
2023-05-18T00:40:12.359Z,1.23
2023-05-18T00:43:00.645Z,1.40
2023-05-18T00:45:48.273Z,1.80
2023-05-18T00:48:37.058Z,1.67
2023-05-18T00:51:25.159Z,2.03
2023-05-18T00:54:13.091Z,1.83
2023-05-18T00:57:02.121Z,2.13
2023-05-18T00:59:49.726Z,1.70
2023-05-18T01:02:42.503Z,1.50
2023-05-18T01:05:32.147Z,1.80
2023-05-18T01:08:20.200Z,2.20
2023-05-18T01:11:11.404Z,1.70
2023-05-18T01:14:05.356Z,1.70
2023-05-18T01:16:56.241Z,1.90
2023-05-18T01:19:58.612Z,2.23
2023-05-18T01:23:13.918Z,1.70
2023-05-18T01:26:15.327Z,1.77
2023-05-18T01:29:06.513Z,2.00
2023-05-18T01:31:54.264Z,1.83
2023-05-18T01:34:41.964Z,2.17
2023-05-18T01:37:29.513Z,1.67
2023-05-18T01:40:16.861Z,1.80
2023-05-18T01:43:09.567Z,1.90
2023-05-18T01:45:59.848Z,1.83
2023-05-18T01:48:50.438Z,1.70
2023-05-18T01:51:40.269Z,1.37
2023-05-18T01:54:28.405Z,2.30
2023-05-18T01:57:17.318Z,1.63
2023-05-18T02:00:10.085Z,1.83
2023-05-18T02:03:08.030Z,1.70
2023-05-18T02:05:56.470Z,1.70
2023-05-18T02:08:44.553Z,1.73
2023-05-18T02:11:32.128Z,1.60
2023-05-18T02:14:19.918Z,1.63
2023-05-18T02:17:08.613Z,2.07
2023-05-18T02:19:56.252Z,1.87
2023-05-18T02:22:43.544Z,1.87
2023-05-18T02:25:31.723Z,2.23
2023-05-18T02:28:19.766Z,2.13
2023-05-18T02:31:08.139Z,1.80
2023-05-18T02:33:57.961Z,2.13
2023-05-18T02:36:46.115Z,1.80
2023-05-18T02:39:33.957Z,1.80
2023-05-18T02:42:21.608Z,2.53
2023-05-18T02:45:09.629Z,2.10
2023-05-18T02:47:57.178Z,2.40
2023-05-18T02:50:47.166Z,2.03
2023-05-18T02:53:34.653Z,1.50
2023-05-18T02:56:29.210Z,1.53
2023-05-18T02:59:27.811Z,2.10
2023-05-18T03:02:16.582Z,1.70
2023-05-18T03:05:05.764Z,1.63
2023-05-18T03:07:55.828Z,1.90
2023-05-18T03:10:43.545Z,1.50
2023-05-18T03:13:30.831Z,2.00
2023-05-18T03:16:18.669Z,1.90
2023-05-18T03:19:07.316Z,1.80
2023-05-18T03:21:58.926Z,1.23
2023-05-18T03:24:51.215Z,1.77
2023-05-18T03:27:38.928Z,1.47
2023-05-18T03:30:26.369Z,1.70
2023-05-18T03:33:13.804Z,2.03
2023-05-18T03:36:04.379Z,1.30
2023-05-18T03:38:52.380Z,2.07
2023-05-18T03:41:41.293Z,1.80
2023-05-18T03:44:28.925Z,1.97
2023-05-18T03:47:16.803Z,2.00
2023-05-18T03:50:04.297Z,1.67
2023-05-18T03:52:53.894Z,2.20
2023-05-18T03:55:41.815Z,1.77
2023-05-18T03:58:30.886Z,2.20
2023-05-18T04:01:19.184Z,1.87
2023-05-18T04:04:07.360Z,2.20
2023-05-18T04:06:55.749Z,1.77
2023-05-18T04:09:43.387Z,1.80
2023-05-18T04:12:30.760Z,1.63
2023-05-18T04:15:19.550Z,2.43
2023-05-18T04:18:08.290Z,1.93
2023-05-18T04:20:56.378Z,1.70
2023-05-18T04:23:45.017Z,1.60
2023-05-18T04:26:32.456Z,2.07
2023-05-18T04:29:19.896Z,2.00
2023-05-18T04:32:09.023Z,2.63
2023-05-18T04:34:58.530Z,2.10
2023-05-18T04:37:46.236Z,1.90
2023-05-18T04:40:38.072Z,1.70
2023-05-18T04:43:26.126Z,1.97
2023-05-18T04:46:13.950Z,1.83
2023-05-18T04:49:03.608Z,1.60
2023-05-18T04:51:56.698Z,1.90
2023-05-18T04:54:44.207Z,2.10
2023-05-18T04:57:31.776Z,1.73
2023-05-18T05:00:22.008Z,2.20
2023-05-18T05:03:09.724Z,2.20
2023-05-18T05:05:59.896Z,1.60
2023-05-18T05:08:47.548Z,2.60
2023-05-18T05:11:35.860Z,1.47
2023-05-18T05:14:23.580Z,2.40
2023-05-18T05:17:12.740Z,2.07
2023-05-18T05:20:00.251Z,2.53
2023-05-18T05:22:49.815Z,1.57
2023-05-18T05:25:43.015Z,2.00
2023-05-18T05:28:30.498Z,2.20
2023-05-18T05:31:18.003Z,2.10
2023-05-18T05:34:06.463Z,1.90
2023-05-18T05:36:53.762Z,1.70
2023-05-18T05:39:42.621Z,1.33
2023-05-18T05:42:30.994Z,1.67
2023-05-18T05:45:18.613Z,1.83
2023-05-18T05:48:11.175Z,1.77
2023-05-18T05:51:01.254Z,2.17
2023-05-18T05:53:50.216Z,1.90
2023-05-18T05:56:39.983Z,1.73
2023-05-18T05:59:27.649Z,1.88
2023-05-18T06:02:15.592Z,1.98
2023-05-18T06:05:03.473Z,1.77
2023-05-18T06:07:51.047Z,1.65
2023-05-18T06:10:39.144Z,2.17
2023-05-18T06:13:28.101Z,2.22
2023-05-18T06:16:17.641Z,1.70
2023-05-18T06:19:05.678Z,1.50
2023-05-18T06:21:54.660Z,1.40
2023-05-18T06:24:42.670Z,2.00
2023-05-18T06:27:48.675Z,1.55
2023-05-18T06:30:55.414Z,1.83
2023-05-18T06:33:50.913Z,1.77
2023-05-18T06:36:38.944Z,1.95
2023-05-18T06:39:26.288Z,1.80
2023-05-18T06:42:13.682Z,1.80
2023-05-18T06:45:11.418Z,1.73
2023-05-18T06:48:10.912Z,1.50
2023-05-18T06:50:58.112Z,2.17
2023-05-18T06:53:45.532Z,1.60
2023-05-18T06:56:33.126Z,2.08
2023-05-18T06:59:22.234Z,2.08
2023-05-18T07:02:10.354Z,2.03
2023-05-18T07:04:59.333Z,1.60
2023-05-18T07:07:47.584Z,1.50
2023-05-18T07:10:35.772Z,1.40
2023-05-18T07:13:23.121Z,1.52
2023-05-18T07:16:10.446Z,1.70
2023-05-18T07:18:59.003Z,1.75
2023-05-18T07:21:48.177Z,1.92
2023-05-18T07:24:35.842Z,1.92
2023-05-18T07:27:23.190Z,1.88
2023-05-18T07:30:11.160Z,1.80
2023-05-18T07:32:58.887Z,1.77
2023-05-18T07:35:46.231Z,1.65
2023-05-18T07:38:34.855Z,1.60
2023-05-18T07:41:22.785Z,2.10
2023-05-18T07:44:10.767Z,1.50
2023-05-18T07:46:58.306Z,1.73
2023-05-18T07:49:46.123Z,1.70
2023-05-18T07:52:33.420Z,1.60
2023-05-18T07:55:22.087Z,1.30
2023-05-18T07:58:10.542Z,1.40
2023-05-18T08:00:57.739Z,1.45
2023-05-18T08:03:45.234Z,1.90
2023-05-18T08:06:33.460Z,1.40
2023-05-18T08:09:22.055Z,1.67
2023-05-18T08:12:10.841Z,1.83
2023-05-18T08:14:58.327Z,2.25
2023-05-18T08:17:45.866Z,1.98
2023-05-18T08:20:33.575Z,1.98
2023-05-18T08:23:20.989Z,1.50
2023-05-18T08:26:10.508Z,1.60
2023-05-18T08:29:00.422Z,1.90
2023-05-18T08:31:49.651Z,1.27
2023-05-18T08:34:37.814Z,1.85
2023-05-18T08:37:29.246Z,1.80
2023-05-18T08:40:16.856Z,1.95
2023-05-18T08:43:05.503Z,1.48
2023-05-18T08:46:00.632Z,1.80
2023-05-18T08:48:48.953Z,1.70
2023-05-18T08:51:37.781Z,1.30
2023-05-18T08:54:25.891Z,1.60
2023-05-18T08:57:13.969Z,1.30
2023-05-18T09:00:02.447Z,1.40
2023-05-18T09:02:52.165Z,1.58
2023-05-18T09:05:39.891Z,1.60
2023-05-18T09:08:27.989Z,1.50
2023-05-18T09:11:15.487Z,1.42
2023-05-18T09:14:03.490Z,1.38
2023-05-18T09:16:50.957Z,1.52
2023-05-18T09:19:39.618Z,1.58
2023-05-18T09:22:27.328Z,1.70
2023-05-18T09:25:15.460Z,1.73
2023-05-18T09:28:04.026Z,1.50
2023-05-18T09:30:53.315Z,1.30
2023-05-18T09:33:41.371Z,1.25
2023-05-18T09:36:30.824Z,1.50
2023-05-18T09:39:18.385Z,1.75
2023-05-18T09:42:06.129Z,1.40
2023-05-18T09:44:53.365Z,1.45
2023-05-18T09:47:40.771Z,1.30
2023-05-18T09:50:28.179Z,1.67
2023-05-18T09:53:17.031Z,1.55
2023-05-18T09:56:06.255Z,1.60
2023-05-18T09:58:54.005Z,1.58
2023-05-18T10:01:56.751Z,1.60
2023-05-18T10:04:44.642Z,1.85
2023-05-18T10:07:32.955Z,1.65
2023-05-18T10:10:22.420Z,1.30
2023-05-18T10:13:10.109Z,1.58
2023-05-18T10:15:58.925Z,1.50
2023-05-18T10:18:46.810Z,1.48
2023-05-18T10:21:35.879Z,1.40
2023-05-18T10:24:23.553Z,1.23
2023-05-18T10:27:12.433Z,1.50
2023-05-18T10:30:02.804Z,1.63
2023-05-18T10:32:50.930Z,1.30
2023-05-18T10:35:40.338Z,1.60
2023-05-18T10:38:28.543Z,1.58
2023-05-18T10:41:16.593Z,1.40
2023-05-18T10:44:05.573Z,1.48
2023-05-18T10:46:53.417Z,1.10
2023-05-18T10:49:41.975Z,1.83
2023-05-18T10:52:31.801Z,1.20
2023-05-18T10:55:19.758Z,1.50
2023-05-18T10:58:10.376Z,1.48
2023-05-18T11:00:59.700Z,1.30
2023-05-18T11:03:47.428Z,1.58
2023-05-18T11:06:35.100Z,1.85
2023-05-18T11:09:24.814Z,1.33
2023-05-18T11:12:15.747Z,1.83
2023-05-18T11:15:03.164Z,1.42
2023-05-18T11:18:11.848Z,1.52
2023-05-18T11:20:59.323Z,1.63
2023-05-18T11:24:08.899Z,1.98
2023-05-18T11:26:57.543Z,2.15
2023-05-18T11:29:46.469Z,1.35
2023-05-18T11:32:34.146Z,1.35
2023-05-18T11:35:25.890Z,1.63
2023-05-18T11:38:13.643Z,1.38
2023-05-18T11:41:01.666Z,1.48
2023-05-18T11:43:59.894Z,1.40
2023-05-18T11:46:54.246Z,1.60
2023-05-18T11:49:45.690Z,1.70
2023-05-18T11:52:34.675Z,1.70
2023-05-18T11:55:22.695Z,1.58
2023-05-18T11:58:11.027Z,1.30
2023-05-18T12:00:59.933Z,1.38
2023-05-18T12:03:48.947Z,1.45
2023-05-18T12:06:37.150Z,1.73
2023-05-18T12:09:26.629Z,1.52
2023-05-18T12:12:16.569Z,1.58
2023-05-18T12:15:05.282Z,1.45
2023-05-18T12:17:53.291Z,1.40
2023-05-18T12:20:41.269Z,1.15
2023-05-18T12:23:38.104Z,1.33
2023-05-18T12:26:28.541Z,1.40
2023-05-18T12:29:19.938Z,1.67
2023-05-18T12:32:08.561Z,1.35
2023-05-18T12:34:55.894Z,1.15
2023-05-18T12:37:45.512Z,1.35
2023-05-18T12:40:38.591Z,1.30
2023-05-18T12:43:27.772Z,1.35
2023-05-18T12:46:15.254Z,1.40
2023-05-18T12:49:04.383Z,1.27
2023-05-18T12:51:56.354Z,1.80
2023-05-18T12:54:58.630Z,1.42
2023-05-18T12:57:46.154Z,1.58
2023-05-18T13:00:36.372Z,1.60
2023-05-18T13:03:24.345Z,1.35
2023-05-18T13:06:11.951Z,1.73
2023-05-18T13:08:59.198Z,1.35
2023-05-18T13:12:03.631Z,1.35
2023-05-18T13:14:55.134Z,1.40
2023-05-18T13:17:51.335Z,1.38
2023-05-18T13:20:41.135Z,1.70
2023-05-18T13:23:29.684Z,1.20
2023-05-18T13:26:18.754Z,1.80
2023-05-18T13:29:07.252Z,1.48
2023-05-18T13:31:54.554Z,1.60
2023-05-18T13:34:43.172Z,1.27
2023-05-18T13:37:31.216Z,1.63
2023-05-18T13:40:19.633Z,1.58
2023-05-18T13:43:07.182Z,1.45
2023-05-18T13:45:54.828Z,1.30
2023-05-18T13:48:42.486Z,1.35
2023-05-18T13:51:31.376Z,1.65
2023-05-18T13:54:18.519Z,1.80
2023-05-18T13:57:07.855Z,1.50
2023-05-18T13:59:55.158Z,1.50
2023-05-18T14:02:42.684Z,1.63
2023-05-18T14:05:30.724Z,1.58
2023-05-18T14:08:19.860Z,1.73
2023-05-18T14:11:07.495Z,1.70
2023-05-18T14:13:54.843Z,1.70
2023-05-18T14:16:42.062Z,1.90
2023-05-18T14:19:29.469Z,1.75
2023-05-18T14:22:18.718Z,2.00
2023-05-18T14:25:07.884Z,1.80
2023-05-18T14:27:55.116Z,1.98
2023-05-18T14:30:42.487Z,2.13
2023-05-18T14:33:29.794Z,1.95
2023-05-18T14:36:17.938Z,1.88
2023-05-18T14:39:06.716Z,2.22
2023-05-18T14:41:55.667Z,1.90
2023-05-18T14:44:43.544Z,1.88
2023-05-18T14:47:31.173Z,1.98
2023-05-18T14:50:18.622Z,2.10
2023-05-18T14:53:06.280Z,1.80
2023-05-18T14:55:53.734Z,2.00
2023-05-18T14:58:42.446Z,1.58
2023-05-18T15:01:30.279Z,2.10
2023-05-18T15:04:17.665Z,2.30
2023-05-18T15:07:05.695Z,1.90
2023-05-18T15:09:53.286Z,1.90
2023-05-18T15:12:40.687Z,2.33
2023-05-18T15:15:29.296Z,1.50
2023-05-18T15:18:17.022Z,1.70
2023-05-18T15:21:04.188Z,1.75
2023-05-18T15:23:51.549Z,1.42
2023-05-18T15:26:39.248Z,1.73
2023-05-18T15:29:26.694Z,2.17
2023-05-18T15:32:15.824Z,1.60
2023-05-18T15:35:03.655Z,1.63
2023-05-18T15:37:51.168Z,1.25
2023-05-18T15:40:38.529Z,1.52
2023-05-18T15:43:26.155Z,1.13
2023-05-18T15:46:13.491Z,1.50
2023-05-18T15:49:02.227Z,1.30
2023-05-18T15:51:49.963Z,1.40
2023-05-18T15:54:37.420Z,1.70
2023-05-18T15:57:25.031Z,2.10
2023-05-18T16:00:14.610Z,2.03
2023-05-18T16:03:02.312Z,1.65
2023-05-18T16:05:51.342Z,2.13
2023-05-18T16:08:39.103Z,1.75
2023-05-18T16:11:26.944Z,1.52
2023-05-18T16:14:14.558Z,1.80
2023-05-18T16:17:03.059Z,1.23
2023-05-18T16:19:50.660Z,1.30
2023-05-18T16:22:39.464Z,1.42
2023-05-18T16:25:28.677Z,1.48
2023-05-18T16:28:15.984Z,1.30
2023-05-18T16:31:04.713Z,1.40
2023-05-18T16:33:52.861Z,1.42
2023-05-18T16:36:40.365Z,1.42
2023-05-18T16:39:28.980Z,1.70
2023-05-18T16:42:18.232Z,1.45
2023-05-18T16:45:06.255Z,1.45
2023-05-18T16:47:53.815Z,1.55
2023-05-18T16:50:41.657Z,1.17
2023-05-18T16:53:28.917Z,1.60
2023-05-18T16:56:17.777Z,1.70
2023-05-18T16:59:05.425Z,1.38
2023-05-18T17:01:52.783Z,1.20
2023-05-18T17:04:42.782Z,1.58
2023-05-18T17:07:29.990Z,1.20
2023-05-18T17:10:17.482Z,1.90
2023-05-18T17:13:06.329Z,1.55
2023-05-18T17:15:53.947Z,1.40
2023-05-18T17:18:41.321Z,1.30
2023-05-18T17:21:30.559Z,1.35
2023-05-18T17:24:18.151Z,1.73
2023-05-18T17:27:05.656Z,1.75
2023-05-18T17:29:54.571Z,1.67
2023-05-18T17:32:44.363Z,1.73
2023-05-18T17:35:31.792Z,2.10
2023-05-18T17:38:21.576Z,1.98
2023-05-18T17:41:09.125Z,1.60
2023-05-18T17:43:56.377Z,1.65
2023-05-18T17:46:46.077Z,1.60
2023-05-18T17:49:33.743Z,2.08
2023-05-18T17:52:20.970Z,1.90
2023-05-18T17:55:09.013Z,1.88
2023-05-18T17:57:56.362Z,2.20
2023-05-18T18:00:43.501Z,1.85
2023-05-18T18:03:32.518Z,1.75
2023-05-18T18:06:22.516Z,1.63
2023-05-18T18:09:10.030Z,2.00
2023-05-18T18:11:58.116Z,2.10
2023-05-18T18:14:45.574Z,1.70
2023-05-18T18:17:33.482Z,1.77
2023-05-18T18:20:22.305Z,2.15
2023-05-18T18:23:10.024Z,2.30
2023-05-18T18:25:57.227Z,2.85
2023-05-18T18:28:44.601Z,2.05
2023-05-18T18:31:32.152Z,1.80
2023-05-18T18:34:20.132Z,1.70
2023-05-18T18:37:08.738Z,1.60
2023-05-18T18:39:56.564Z,1.60
2023-05-18T18:42:44.062Z,1.65
2023-05-18T18:45:32.075Z,1.65
2023-05-18T18:48:21.261Z,1.50
2023-05-18T18:51:08.559Z,1.30
2023-05-18T18:53:57.407Z,1.70
2023-05-18T18:56:45.229Z,1.55
2023-05-18T18:59:34.799Z,1.63
2023-05-18T19:02:23.643Z,1.92
2023-05-18T19:05:11.436Z,1.55
2023-05-18T19:07:58.714Z,1.70
2023-05-18T19:10:47.363Z,1.73
2023-05-18T19:13:34.915Z,2.25
2023-05-18T19:16:22.341Z,2.50
2023-05-18T19:19:09.988Z,2.60
2023-05-18T19:21:57.501Z,2.88
2023-05-18T19:24:44.755Z,3.03
2023-05-18T19:27:33.672Z,2.80
2023-05-18T19:30:21.837Z,3.28
2023-05-18T19:33:09.341Z,2.90
2023-05-18T19:35:56.598Z,3.10
2023-05-18T19:38:43.975Z,3.20
2023-05-18T19:41:31.438Z,3.45
2023-05-18T19:44:20.009Z,3.33
2023-05-18T19:47:07.537Z,4.30
2023-05-18T19:49:54.991Z,4.25
2023-05-18T19:52:42.872Z,3.35
2023-05-18T19:55:31.150Z,3.95
2023-05-18T19:58:18.964Z,4.53
2023-05-18T20:01:09.867Z,3.50
2023-05-18T20:03:59.230Z,3.65
2023-05-18T20:06:47.044Z,3.58
2023-05-18T20:09:34.307Z,3.95
2023-05-18T20:12:21.773Z,3.65
2023-05-18T20:15:09.764Z,3.85
2023-05-18T20:17:58.406Z,3.65
2023-05-18T20:20:45.873Z,2.40
2023-05-18T20:23:33.417Z,2.40
2023-05-18T20:26:22.619Z,2.30
2023-05-18T20:29:09.865Z,1.83
2023-05-18T20:31:57.289Z,2.20
2023-05-18T20:34:46.417Z,1.73
2023-05-18T20:37:35.024Z,2.65
2023-05-18T20:40:22.648Z,2.08
2023-05-18T20:43:11.513Z,1.83
2023-05-18T20:45:59.254Z,2.00
2023-05-18T20:48:47.329Z,2.00
2023-05-18T20:51:36.355Z,1.80
2023-05-18T20:54:24.114Z,2.10
2023-05-18T20:57:11.886Z,1.55
2023-05-18T20:59:59.421Z,1.73
2023-05-18T21:02:48.187Z,2.10
2023-05-18T21:05:36.534Z,1.85
2023-05-18T21:08:25.146Z,1.90
2023-05-18T21:11:12.692Z,1.90
2023-05-18T21:14:00.211Z,2.05
2023-05-18T21:16:47.930Z,1.75
2023-05-18T21:19:35.354Z,2.00
2023-05-18T21:22:22.586Z,1.77
2023-05-18T21:25:11.666Z,1.90
2023-05-18T21:27:58.911Z,1.77
2023-05-18T21:30:46.621Z,2.00
2023-05-18T21:33:34.292Z,2.30
2023-05-18T21:36:24.594Z,1.85
2023-05-18T21:39:12.762Z,1.60
2023-05-18T21:42:02.555Z,1.80
2023-05-18T21:44:49.891Z,1.50
2023-05-18T21:47:37.451Z,1.80
2023-05-18T21:50:25.309Z,2.00
2023-05-18T21:53:12.868Z,1.88
2023-05-18T21:56:00.479Z,2.20
2023-05-18T21:58:49.719Z,1.92
2023-05-18T22:01:37.495Z,1.77
2023-05-18T22:04:25.162Z,2.10
2023-05-18T22:07:13.826Z,1.88
2023-05-18T22:10:01.343Z,2.03
2023-05-18T22:12:49.284Z,1.80
2023-05-18T22:15:40.120Z,2.03
2023-05-18T22:18:27.734Z,1.88
2023-05-18T22:21:15.454Z,1.35
2023-05-18T22:24:02.969Z,1.87
2023-05-18T22:26:50.183Z,1.42
2023-05-18T22:29:37.527Z,2.03
2023-05-18T22:32:26.397Z,2.00
2023-05-18T22:35:13.924Z,3.17
2023-05-18T22:38:01.076Z,1.80
2023-05-18T22:40:49.626Z,1.77
2023-05-18T22:43:37.050Z,1.70
2023-05-18T22:46:24.670Z,1.83
2023-05-18T22:49:13.399Z,1.90
2023-05-18T22:52:02.465Z,1.60
2023-05-18T22:54:50.170Z,2.00
2023-05-18T22:57:44.495Z,2.00
2023-05-18T23:00:32.442Z,1.77
2023-05-18T23:03:20.446Z,1.80
2023-05-18T23:06:09.417Z,1.70
2023-05-18T23:08:56.632Z,1.70
2023-05-18T23:11:45.953Z,1.60
2023-05-18T23:14:33.850Z,1.70
2023-05-18T23:17:23.194Z,1.60
2023-05-18T23:20:11.504Z,1.90
2023-05-18T23:23:00.202Z,1.60
2023-05-18T23:25:47.730Z,2.93
2023-05-18T23:28:35.280Z,1.63
2023-05-18T23:31:23.118Z,1.90
2023-05-18T23:34:10.869Z,1.63
2023-05-18T23:37:02.575Z,1.80
2023-05-18T23:39:52.379Z,1.80
2023-05-18T23:42:40.478Z,2.27
2023-05-18T23:45:28.053Z,1.83
2023-05-18T23:48:15.473Z,1.70
2023-05-18T23:51:03.922Z,1.43
2023-05-18T23:53:52.818Z,1.73
2023-05-18T23:56:42.165Z,1.70
2023-05-18T23:59:29.723Z,2.00
